N133B KSJC-KTVL
Flight info
| Callsign | N133B |
|---|---|
| Flight time | 0h 38m |
| Altitude | 21000 |
| Route | LOUPE1 ORRCA |
| Aircraft | RJ1H/M-SDFGIRWY/LB1 |
Departure
| Time | 2026-04-25 04:44 |
|---|---|
| Airport | Norman Y. Mineta San Jose International Airport (KSJC) |
Arrival
| Time | 2026-04-25 05:22 |
|---|---|
| Airport | Lake Tahoe Airport (KTVL) |
| Time | Latitude | Longitude | Altitude | Speed | Heading |
|---|---|---|---|---|---|
| 2026-04-25 04:17 | 37.36176 | -121.92186 | 54 ft | 0 kts | 52° |
| 2026-04-25 04:28 | 37.36176 | -121.92187 | 54 ft | 1 kts | 52° |
| 2026-04-25 04:29 | 37.36160 | -121.92211 | 51 ft | 4 kts | 49° |
| 2026-04-25 04:29 | 37.36146 | -121.92231 | 51 ft | 4 kts | 54° |
| 2026-04-25 04:29 | 37.36134 | -121.92255 | 50 ft | 4 kts | 92° |
| 2026-04-25 04:29 | 37.36147 | -121.92277 | 52 ft | 4 kts | 139° |
| 2026-04-25 04:30 | 37.36165 | -121.92298 | 50 ft | 2 kts | 138° |
| 2026-04-25 04:30 | 37.36166 | -121.92299 | 50 ft | 0 kts | 138° |
| 2026-04-25 04:36 | 37.36160 | -121.92293 | 50 ft | 3 kts | 138° |
| 2026-04-25 04:36 | 37.36131 | -121.92261 | 48 ft | 8 kts | 138° |
| 2026-04-25 04:37 | 37.36078 | -121.92201 | 55 ft | 12 kts | 138° |
| 2026-04-25 04:37 | 37.36001 | -121.92118 | 56 ft | 17 kts | 139° |
| 2026-04-25 04:37 | 37.35902 | -121.92010 | 57 ft | 21 kts | 138° |
| 2026-04-25 04:37 | 37.35786 | -121.91881 | 54 ft | 23 kts | 139° |
| 2026-04-25 04:38 | 37.35670 | -121.91754 | 56 ft | 22 kts | 139° |
| 2026-04-25 04:38 | 37.35558 | -121.91632 | 61 ft | 21 kts | 139° |
| 2026-04-25 04:38 | 37.35450 | -121.91513 | 55 ft | 20 kts | 139° |
| 2026-04-25 04:38 | 37.35341 | -121.91421 | 58 ft | 18 kts | 188° |
| 2026-04-25 04:39 | 37.35295 | -121.91467 | 60 ft | 0 kts | 228° |
| 2026-04-25 04:42 | 37.35285 | -121.91480 | 61 ft | 5 kts | 228° |
| 2026-04-25 04:43 | 37.35252 | -121.91535 | 62 ft | 10 kts | 255° |
| 2026-04-25 04:43 | 37.35316 | -121.91631 | 60 ft | 31 kts | 319° |
| 2026-04-25 04:43 | 37.35637 | -121.91983 | 58 ft | 89 kts | 319° |
| 2026-04-25 04:43 | 37.36231 | -121.92630 | 52 ft | 133 kts | 319° |
| 2026-04-25 04:44 | 37.36987 | -121.93454 | 275 ft | 145 kts | 320° |
| 2026-04-25 04:44 | 37.37788 | -121.94202 | 833 ft | 142 kts | 341° |
| 2026-04-25 04:44 | 37.38755 | -121.94176 | 1361 ft | 139 kts | 6° |
| 2026-04-25 04:44 | 37.39717 | -121.94049 | 1824 ft | 139 kts | 359° |
| 2026-04-25 04:45 | 37.40688 | -121.93968 | 2279 ft | 141 kts | 359° |
| 2026-04-25 04:45 | 37.41687 | -121.93926 | 2757 ft | 150 kts | 357° |
| 2026-04-25 04:45 | 37.42828 | -121.93932 | 3025 ft | 174 kts | 356° |
| 2026-04-25 04:45 | 37.44070 | -121.93985 | 3534 ft | 180 kts | 356° |
| 2026-04-25 04:46 | 37.45311 | -121.94070 | 4173 ft | 177 kts | 354° |
| 2026-04-25 04:46 | 37.46537 | -121.94182 | 4724 ft | 177 kts | 353° |
| 2026-04-25 04:46 | 37.47349 | -121.94271 | 5065 ft | 177 kts | 353° |
| 2026-04-25 04:46 | 37.48574 | -121.94429 | 5554 ft | 177 kts | 353° |
| 2026-04-25 04:47 | 37.49799 | -121.94602 | 6038 ft | 177 kts | 352° |
| 2026-04-25 04:47 | 37.51027 | -121.94788 | 6509 ft | 178 kts | 351° |
| 2026-04-25 04:47 | 37.52664 | -121.95063 | 6998 ft | 186 kts | 351° |
| 2026-04-25 04:47 | 37.54061 | -121.95262 | 7011 ft | 218 kts | 2° |
| 2026-04-25 04:48 | 37.55107 | -121.95070 | 7125 ft | 231 kts | 12° |
| 2026-04-25 04:48 | 37.56721 | -121.94631 | 7444 ft | 241 kts | 12° |
| 2026-04-25 04:48 | 37.58355 | -121.94163 | 8043 ft | 239 kts | 13° |
| 2026-04-25 04:48 | 37.59955 | -121.93680 | 8627 ft | 240 kts | 14° |
| 2026-04-25 04:49 | 37.61581 | -121.93159 | 9242 ft | 241 kts | 14° |
| 2026-04-25 04:49 | 37.63216 | -121.92630 | 9884 ft | 243 kts | 14° |
| 2026-04-25 04:49 | 37.64858 | -121.92102 | 10483 ft | 245 kts | 14° |
| 2026-04-25 04:49 | 37.66516 | -121.91566 | 11098 ft | 246 kts | 14° |
| 2026-04-25 04:50 | 37.68181 | -121.91028 | 11733 ft | 249 kts | 14° |
| 2026-04-25 04:50 | 37.69865 | -121.90482 | 12393 ft | 250 kts | 14° |
| 2026-04-25 04:50 | 37.71560 | -121.89933 | 13047 ft | 253 kts | 14° |
| 2026-04-25 04:50 | 37.73276 | -121.89396 | 13711 ft | 254 kts | 14° |
| 2026-04-25 04:51 | 37.75007 | -121.88862 | 14269 ft | 258 kts | 14° |
| 2026-04-25 04:51 | 37.76755 | -121.88323 | 14848 ft | 260 kts | 13° |
| 2026-04-25 04:51 | 37.78522 | -121.87773 | 15394 ft | 263 kts | 13° |
| 2026-04-25 04:51 | 37.80301 | -121.87213 | 15976 ft | 265 kts | 14° |
| 2026-04-25 04:52 | 37.82096 | -121.86607 | 16491 ft | 268 kts | 18° |
| 2026-04-25 04:52 | 37.83856 | -121.85803 | 17045 ft | 270 kts | 21° |
| 2026-04-25 04:52 | 37.85616 | -121.84919 | 17587 ft | 273 kts | 22° |
| 2026-04-25 04:52 | 37.87374 | -121.84007 | 18134 ft | 275 kts | 22° |
| 2026-04-25 04:53 | 37.89153 | -121.83072 | 18598 ft | 277 kts | 21° |
| 2026-04-25 04:53 | 37.90935 | -121.82137 | 18999 ft | 282 kts | 22° |
| 2026-04-25 04:53 | 37.92816 | -121.81167 | 19099 ft | 298 kts | 21° |
| 2026-04-25 04:53 | 37.94793 | -121.80169 | 19122 ft | 314 kts | 21° |
| 2026-04-25 04:54 | 37.96841 | -121.79139 | 19165 ft | 327 kts | 20° |
| 2026-04-25 04:54 | 37.98985 | -121.78063 | 19301 ft | 334 kts | 21° |
| 2026-04-25 04:54 | 38.01158 | -121.76976 | 19564 ft | 337 kts | 21° |
| 2026-04-25 04:54 | 38.03346 | -121.75878 | 19828 ft | 339 kts | 20° |
| 2026-04-25 04:55 | 38.05553 | -121.74777 | 20070 ft | 342 kts | 20° |
| 2026-04-25 04:55 | 38.07772 | -121.73667 | 20336 ft | 344 kts | 19° |
| 2026-04-25 04:55 | 38.10003 | -121.72546 | 20605 ft | 345 kts | 20° |
| 2026-04-25 04:55 | 38.12241 | -121.71427 | 20807 ft | 348 kts | 19° |
| 2026-04-25 04:56 | 38.14492 | -121.70303 | 20878 ft | 343 kts | 19° |
| 2026-04-25 04:56 | 38.16710 | -121.69191 | 20902 ft | 343 kts | 19° |
| 2026-04-25 04:56 | 38.18927 | -121.68067 | 20904 ft | 344 kts | 19° |
| 2026-04-25 04:56 | 38.21150 | -121.66950 | 20907 ft | 343 kts | 19° |
| 2026-04-25 04:57 | 38.23371 | -121.65834 | 20910 ft | 343 kts | 19° |
| 2026-04-25 04:57 | 38.25595 | -121.64710 | 20913 ft | 343 kts | 20° |
| 2026-04-25 04:57 | 38.27814 | -121.63585 | 20914 ft | 344 kts | 19° |
| 2026-04-25 04:57 | 38.30039 | -121.62460 | 20918 ft | 344 kts | 20° |
| 2026-04-25 04:58 | 38.32238 | -121.61352 | 20917 ft | 344 kts | 19° |
| 2026-04-25 04:58 | 38.34467 | -121.60229 | 20920 ft | 345 kts | 21° |
| 2026-04-25 04:58 | 38.36693 | -121.59101 | 20923 ft | 345 kts | 19° |
| 2026-04-25 04:58 | 38.38928 | -121.57967 | 20925 ft | 345 kts | 20° |
| 2026-04-25 04:59 | 38.41155 | -121.56846 | 20927 ft | 345 kts | 19° |
| 2026-04-25 04:59 | 38.43358 | -121.55603 | 20923 ft | 347 kts | 32° |
| 2026-04-25 04:59 | 38.45073 | -121.53441 | 20946 ft | 354 kts | 57° |
| 2026-04-25 04:59 | 38.46119 | -121.50559 | 20963 ft | 364 kts | 69° |
| 2026-04-25 05:00 | 38.47000 | -121.47477 | 20968 ft | 374 kts | 70° |
| 2026-04-25 05:00 | 38.47861 | -121.44289 | 20958 ft | 384 kts | 70° |
| 2026-04-25 05:00 | 38.48733 | -121.41026 | 20955 ft | 394 kts | 70° |
| 2026-04-25 05:00 | 38.49645 | -121.37682 | 20950 ft | 402 kts | 70° |
| 2026-04-25 05:01 | 38.50606 | -121.34283 | 20949 ft | 411 kts | 69° |
| 2026-04-25 05:01 | 38.51603 | -121.30831 | 20945 ft | 419 kts | 69° |
| 2026-04-25 05:01 | 38.52621 | -121.27352 | 20944 ft | 426 kts | 69° |
| 2026-04-25 05:01 | 38.53664 | -121.23845 | 20941 ft | 418 kts | 69° |
| 2026-04-25 05:02 | 38.54673 | -121.20426 | 20924 ft | 406 kts | 69° |
| 2026-04-25 05:02 | 38.55667 | -121.17054 | 20918 ft | 406 kts | 69° |
| 2026-04-25 05:02 | 38.56664 | -121.13672 | 20918 ft | 407 kts | 69° |
| 2026-04-25 05:02 | 38.57659 | -121.10288 | 20921 ft | 407 kts | 69° |
| 2026-04-25 05:03 | 38.58656 | -121.06904 | 20923 ft | 406 kts | 69° |
| 2026-04-25 05:03 | 38.59651 | -121.03526 | 20921 ft | 406 kts | 69° |
| 2026-04-25 05:03 | 38.60648 | -121.00142 | 20924 ft | 407 kts | 69° |
| 2026-04-25 05:03 | 38.61644 | -120.96756 | 20924 ft | 407 kts | 69° |
| 2026-04-25 05:04 | 38.62643 | -120.93362 | 20939 ft | 408 kts | 69° |
| 2026-04-25 05:04 | 38.63628 | -120.89957 | 20941 ft | 408 kts | 69° |
| 2026-04-25 05:04 | 38.64597 | -120.86547 | 20942 ft | 408 kts | 69° |
| 2026-04-25 05:04 | 38.65588 | -120.83142 | 20943 ft | 408 kts | 69° |
| 2026-04-25 05:05 | 38.66584 | -120.79740 | 20943 ft | 409 kts | 69° |
| 2026-04-25 05:05 | 38.67566 | -120.76327 | 20984 ft | 409 kts | 70° |
| 2026-04-25 05:05 | 38.68542 | -120.72900 | 20983 ft | 409 kts | 69° |
| 2026-04-25 05:05 | 38.69537 | -120.69492 | 20984 ft | 409 kts | 69° |
| 2026-04-25 05:06 | 38.70526 | -120.66072 | 20979 ft | 409 kts | 69° |
| 2026-04-25 05:06 | 38.71495 | -120.62648 | 20980 ft | 409 kts | 69° |
| 2026-04-25 05:06 | 38.72483 | -120.59228 | 20978 ft | 410 kts | 69° |
| 2026-04-25 05:06 | 38.73471 | -120.55804 | 20971 ft | 410 kts | 69° |
| 2026-04-25 05:07 | 38.74440 | -120.52374 | 20966 ft | 410 kts | 70° |
| 2026-04-25 05:07 | 38.75416 | -120.48959 | 20963 ft | 401 kts | 69° |
| 2026-04-25 05:07 | 38.76372 | -120.45670 | 20951 ft | 392 kts | 69° |
| 2026-04-25 05:07 | 38.77302 | -120.42387 | 20947 ft | 392 kts | 70° |
| 2026-04-25 05:08 | 38.78233 | -120.39078 | 20604 ft | 396 kts | 70° |
| 2026-04-25 05:08 | 38.79147 | -120.35825 | 20106 ft | 390 kts | 70° |
| 2026-04-25 05:08 | 38.80073 | -120.32585 | 19613 ft | 383 kts | 70° |
| 2026-04-25 05:08 | 38.80993 | -120.29412 | 19125 ft | 377 kts | 66° |
| 2026-04-25 05:09 | 38.82436 | -120.26675 | 18658 ft | 369 kts | 42° |
| 2026-04-25 05:09 | 38.84590 | -120.24995 | 18210 ft | 362 kts | 18° |
| 2026-04-25 05:09 | 38.87049 | -120.24581 | 17725 ft | 355 kts | 354° |
| 2026-04-25 05:09 | 38.89456 | -120.25087 | 17292 ft | 347 kts | 348° |
| 2026-04-25 05:10 | 38.91806 | -120.25698 | 16873 ft | 342 kts | 348° |
| 2026-04-25 05:10 | 38.94119 | -120.26334 | 16461 ft | 338 kts | 346° |
| 2026-04-25 05:10 | 38.96390 | -120.27047 | 16054 ft | 334 kts | 347° |
| 2026-04-25 05:10 | 38.98675 | -120.27552 | 15649 ft | 331 kts | 353° |
| 2026-04-25 05:11 | 39.00959 | -120.27780 | 15253 ft | 328 kts | 358° |
| 2026-04-25 05:11 | 39.03239 | -120.27828 | 14869 ft | 327 kts | 0° |
| 2026-04-25 05:11 | 39.05509 | -120.27772 | 14537 ft | 325 kts | 2° |
| 2026-04-25 05:12 | 39.10032 | -120.27516 | 13939 ft | 326 kts | 3° |
| 2026-04-25 05:12 | 39.12297 | -120.27371 | 13615 ft | 324 kts | 4° |
| 2026-04-25 05:12 | 39.14541 | -120.27228 | 13269 ft | 322 kts | 4° |
| 2026-04-25 05:12 | 39.16679 | -120.26614 | 12932 ft | 319 kts | 28° |
| 2026-04-25 05:13 | 39.18348 | -120.24795 | 12714 ft | 316 kts | 56° |
| 2026-04-25 05:13 | 39.19238 | -120.22243 | 12516 ft | 312 kts | 74° |
| 2026-04-25 05:13 | 39.19814 | -120.19550 | 12447 ft | 311 kts | 76° |
| 2026-04-25 05:13 | 39.20341 | -120.16838 | 12426 ft | 311 kts | 77° |
| 2026-04-25 05:14 | 39.20823 | -120.14185 | 12418 ft | 300 kts | 78° |
| 2026-04-25 05:14 | 39.21285 | -120.11569 | 12421 ft | 300 kts | 78° |
| 2026-04-25 05:14 | 39.21754 | -120.08958 | 12416 ft | 299 kts | 78° |
| 2026-04-25 05:15 | 39.22732 | -120.03719 | 12127 ft | 302 kts | 77° |
| 2026-04-25 05:15 | 39.23242 | -120.01102 | 11895 ft | 300 kts | 76° |
| 2026-04-25 05:15 | 39.23762 | -119.98492 | 11609 ft | 300 kts | 76° |
| 2026-04-25 05:15 | 39.24209 | -119.95870 | 11383 ft | 299 kts | 87° |
| 2026-04-25 05:16 | 39.23824 | -119.93278 | 11182 ft | 297 kts | 118° |
| 2026-04-25 05:16 | 39.22487 | -119.91297 | 10983 ft | 295 kts | 148° |
| 2026-04-25 05:16 | 39.20580 | -119.90400 | 10802 ft | 294 kts | 176° |
| 2026-04-25 05:16 | 39.18607 | -119.90786 | 10605 ft | 286 kts | 205° |
| 2026-04-25 05:17 | 39.16922 | -119.92082 | 10403 ft | 280 kts | 214° |
| 2026-04-25 05:17 | 39.15324 | -119.93491 | 10181 ft | 277 kts | 213° |
| 2026-04-25 05:17 | 39.13594 | -119.94488 | 10025 ft | 271 kts | 192° |
| 2026-04-25 05:17 | 39.11772 | -119.94907 | 9974 ft | 262 kts | 191° |
| 2026-04-25 05:18 | 39.09991 | -119.95338 | 9796 ft | 260 kts | 191° |
| 2026-04-25 05:18 | 39.08226 | -119.95756 | 9571 ft | 254 kts | 191° |
| 2026-04-25 05:18 | 39.06517 | -119.96139 | 9504 ft | 243 kts | 190° |
| 2026-04-25 05:18 | 39.04882 | -119.96493 | 9470 ft | 235 kts | 189° |
| 2026-04-25 05:19 | 39.03252 | -119.96814 | 9242 ft | 238 kts | 188° |
| 2026-04-25 05:19 | 39.01631 | -119.97096 | 8932 ft | 233 kts | 188° |
| 2026-04-25 05:19 | 39.00079 | -119.97364 | 8649 ft | 221 kts | 188° |
| 2026-04-25 05:19 | 38.98641 | -119.97616 | 8429 ft | 194 kts | 188° |
| 2026-04-25 05:20 | 38.97404 | -119.97829 | 8277 ft | 163 kts | 188° |
| 2026-04-25 05:20 | 38.96358 | -119.98011 | 8070 ft | 146 kts | 188° |
| 2026-04-25 05:20 | 38.95351 | -119.98193 | 7670 ft | 146 kts | 188° |
| 2026-04-25 05:20 | 38.94358 | -119.98369 | 7315 ft | 141 kts | 188° |
| 2026-04-25 05:21 | 38.93404 | -119.98531 | 7047 ft | 138 kts | 188° |
| 2026-04-25 05:21 | 38.92456 | -119.98697 | 6769 ft | 136 kts | 188° |
| 2026-04-25 05:21 | 38.91528 | -119.98905 | 6543 ft | 135 kts | 191° |
| 2026-04-25 05:21 | 38.90622 | -119.99175 | 6331 ft | 134 kts | 192° |
| 2026-04-25 05:22 | 38.89751 | -119.99429 | 6270 ft | 117 kts | 193° |
| 2026-04-25 05:22 | 38.89131 | -119.99613 | 6265 ft | 57 kts | 193° |
| 2026-04-25 05:22 | 38.88796 | -119.99711 | 6265 ft | 46 kts | 193° |
| 2026-04-25 05:22 | 38.88503 | -119.99797 | 6266 ft | 41 kts | 193° |
| 2026-04-25 05:23 | 38.88277 | -119.99876 | 6266 ft | 19 kts | 224° |
| 2026-04-25 05:23 | 38.88314 | -119.99954 | 6266 ft | 12 kts | 12° |
| 2026-04-25 05:23 | 38.88384 | -119.99934 | 6266 ft | 9 kts | 12° |
| 2026-04-25 05:23 | 38.88443 | -119.99917 | 6265 ft | 8 kts | 12° |
| 2026-04-25 05:24 | 38.88496 | -119.99902 | 6264 ft | 8 kts | 12° |
| 2026-04-25 05:24 | 38.88547 | -119.99887 | 6264 ft | 8 kts | 13° |
| 2026-04-25 05:24 | 38.88604 | -119.99871 | 6264 ft | 8 kts | 13° |
| 2026-04-25 05:24 | 38.88661 | -119.99854 | 6265 ft | 8 kts | 13° |
| 2026-04-25 05:25 | 38.88720 | -119.99836 | 6265 ft | 9 kts | 13° |
| 2026-04-25 05:25 | 38.88784 | -119.99817 | 6265 ft | 10 kts | 13° |
| 2026-04-25 05:25 | 38.88852 | -119.99797 | 6267 ft | 9 kts | 13° |
| 2026-04-25 05:25 | 38.88909 | -119.99780 | 6268 ft | 8 kts | 13° |
| 2026-04-25 05:26 | 38.88965 | -119.99764 | 6269 ft | 8 kts | 13° |
| 2026-04-25 05:26 | 38.89026 | -119.99746 | 6269 ft | 10 kts | 13° |
| 2026-04-25 05:26 | 38.89099 | -119.99724 | 6267 ft | 12 kts | 13° |
| 2026-04-25 05:26 | 38.89185 | -119.99698 | 6267 ft | 13 kts | 13° |
| 2026-04-25 05:27 | 38.89277 | -119.99671 | 6268 ft | 14 kts | 13° |
| 2026-04-25 05:27 | 38.89371 | -119.99643 | 6268 ft | 14 kts | 13° |
| 2026-04-25 05:27 | 38.89472 | -119.99615 | 6267 ft | 14 kts | 2° |
| 2026-04-25 05:27 | 38.89484 | -119.99696 | 6270 ft | 13 kts | 198° |
| 2026-04-25 05:28 | 38.89400 | -119.99720 | 6269 ft | 11 kts | 193° |
| 2026-04-25 05:28 | 38.89353 | -119.99734 | 6269 ft | 0 kts | 193° |